sensor_id;sensor_type;location;lat;lon;timestamp;P1;durP1;ratioP1;P2;durP2;ratioP2
13660;SDS011;6903;49.480;11.102;2023-07-09T00:01:58;9.50;;;6.93;;
13660;SDS011;6903;49.480;11.102;2023-07-09T00:04:23;7.47;;;6.60;;
13660;SDS011;6903;49.480;11.102;2023-07-09T00:06:49;8.38;;;7.00;;
13660;SDS011;6903;49.480;11.102;2023-07-09T00:09:15;10.20;;;7.13;;
13660;SDS011;6903;49.480;11.102;2023-07-09T00:11:45;8.40;;;7.55;;
13660;SDS011;6903;49.480;11.102;2023-07-09T00:14:11;7.60;;;6.80;;
13660;SDS011;6903;49.480;11.102;2023-07-09T00:16:39;8.73;;;6.68;;
13660;SDS011;6903;49.480;11.102;2023-07-09T00:19:13;7.57;;;6.88;;
13660;SDS011;6903;49.480;11.102;2023-07-09T00:21:48;8.70;;;7.13;;
13660;SDS011;6903;49.480;11.102;2023-07-09T00:24:18;9.88;;;7.22;;
13660;SDS011;6903;49.480;11.102;2023-07-09T00:26:43;7.97;;;7.10;;
13660;SDS011;6903;49.480;11.102;2023-07-09T00:29:11;8.55;;;7.10;;
13660;SDS011;6903;49.480;11.102;2023-07-09T00:31:37;11.70;;;7.28;;
13660;SDS011;6903;49.480;11.102;2023-07-09T00:34:09;8.27;;;7.00;;
13660;SDS011;6903;49.480;11.102;2023-07-09T00:36:39;8.10;;;7.20;;
13660;SDS011;6903;49.480;11.102;2023-07-09T00:39:15;8.88;;;7.07;;
13660;SDS011;6903;49.480;11.102;2023-07-09T00:41:43;8.38;;;7.35;;
13660;SDS011;6903;49.480;11.102;2023-07-09T00:44:19;10.13;;;7.47;;
13660;SDS011;6903;49.480;11.102;2023-07-09T00:49:11;10.15;;;7.10;;
13660;SDS011;6903;49.480;11.102;2023-07-09T00:51:42;8.50;;;7.40;;
13660;SDS011;6903;49.480;11.102;2023-07-09T00:54:28;9.38;;;7.43;;
13660;SDS011;6903;49.480;11.102;2023-07-09T00:57:06;8.98;;;7.70;;
13660;SDS011;6903;49.480;11.102;2023-07-09T00:59:37;10.15;;;7.50;;
13660;SDS011;6903;49.480;11.102;2023-07-09T01:02:04;9.57;;;7.00;;
13660;SDS011;6903;49.480;11.102;2023-07-09T01:04:32;9.02;;;7.07;;
13660;SDS011;6903;49.480;11.102;2023-07-09T01:06:57;11.18;;;8.02;;
13660;SDS011;6903;49.480;11.102;2023-07-09T01:09:23;9.35;;;7.20;;
13660;SDS011;6903;49.480;11.102;2023-07-09T01:11:49;9.07;;;7.47;;
13660;SDS011;6903;49.480;11.102;2023-07-09T01:14:15;8.10;;;7.03;;
13660;SDS011;6903;49.480;11.102;2023-07-09T01:16:48;8.85;;;6.97;;
13660;SDS011;6903;49.480;11.102;2023-07-09T01:19:22;9.48;;;7.47;;
13660;SDS011;6903;49.480;11.102;2023-07-09T01:21:50;11.52;;;6.93;;
13660;SDS011;6903;49.480;11.102;2023-07-09T01:27:12;9.30;;;7.78;;
13660;SDS011;6903;49.480;11.102;2023-07-09T01:29:38;9.52;;;7.30;;
13660;SDS011;6903;49.480;11.102;2023-07-09T01:32:04;8.43;;;7.50;;
13660;SDS011;6903;49.480;11.102;2023-07-09T01:34:31;11.18;;;7.15;;
13660;SDS011;6903;49.480;11.102;2023-07-09T01:36:57;10.68;;;7.72;;
13660;SDS011;6903;49.480;11.102;2023-07-09T01:39:22;10.30;;;8.32;;
13660;SDS011;6903;49.480;11.102;2023-07-09T01:41:48;10.95;;;7.97;;
13660;SDS011;6903;49.480;11.102;2023-07-09T01:44:13;11.52;;;7.97;;
13660;SDS011;6903;49.480;11.102;2023-07-09T01:46:39;8.95;;;7.70;;
13660;SDS011;6903;49.480;11.102;2023-07-09T01:49:04;10.18;;;7.50;;
13660;SDS011;6903;49.480;11.102;2023-07-09T01:51:32;7.95;;;7.13;;
13660;SDS011;6903;49.480;11.102;2023-07-09T01:53:58;9.10;;;7.30;;
13660;SDS011;6903;49.480;11.102;2023-07-09T01:56:24;10.35;;;8.10;;
13660;SDS011;6903;49.480;11.102;2023-07-09T01:58:50;8.13;;;7.30;;
13660;SDS011;6903;49.480;11.102;2023-07-09T02:01:15;10.80;;;8.40;;
13660;SDS011;6903;49.480;11.102;2023-07-09T02:03:41;8.55;;;7.57;;
13660;SDS011;6903;49.480;11.102;2023-07-09T02:06:07;10.35;;;7.88;;
13660;SDS011;6903;49.480;11.102;2023-07-09T02:08:36;8.85;;;7.93;;
13660;SDS011;6903;49.480;11.102;2023-07-09T02:11:01;8.40;;;7.57;;
13660;SDS011;6903;49.480;11.102;2023-07-09T02:13:27;8.20;;;7.32;;
13660;SDS011;6903;49.480;11.102;2023-07-09T02:15:52;8.32;;;7.32;;
13660;SDS011;6903;49.480;11.102;2023-07-09T02:18:17;8.77;;;7.60;;
13660;SDS011;6903;49.480;11.102;2023-07-09T02:20:45;9.60;;;7.60;;
13660;SDS011;6903;49.480;11.102;2023-07-09T02:23:10;9.68;;;7.55;;
13660;SDS011;6903;49.480;11.102;2023-07-09T02:25:36;8.75;;;7.82;;
13660;SDS011;6903;49.480;11.102;2023-07-09T02:28:02;7.70;;;7.00;;
13660;SDS011;6903;49.480;11.102;2023-07-09T02:30:28;8.80;;;7.60;;
13660;SDS011;6903;49.480;11.102;2023-07-09T02:32:53;9.43;;;7.28;;
13660;SDS011;6903;49.480;11.102;2023-07-09T02:35:20;8.48;;;7.68;;
13660;SDS011;6903;49.480;11.102;2023-07-09T02:37:46;8.75;;;7.35;;
13660;SDS011;6903;49.480;11.102;2023-07-09T02:40:11;9.37;;;8.33;;
13660;SDS011;6903;49.480;11.102;2023-07-09T02:42:37;9.40;;;7.37;;
13660;SDS011;6903;49.480;11.102;2023-07-09T02:45:03;8.83;;;7.43;;
13660;SDS011;6903;49.480;11.102;2023-07-09T02:47:29;11.52;;;8.10;;
13660;SDS011;6903;49.480;11.102;2023-07-09T02:49:54;9.87;;;7.57;;
13660;SDS011;6903;49.480;11.102;2023-07-09T02:52:19;10.52;;;7.82;;
13660;SDS011;6903;49.480;11.102;2023-07-09T02:54:45;8.60;;;7.28;;
13660;SDS011;6903;49.480;11.102;2023-07-09T02:57:10;9.18;;;7.68;;
13660;SDS011;6903;49.480;11.102;2023-07-09T02:59:36;9.40;;;7.90;;
13660;SDS011;6903;49.480;11.102;2023-07-09T03:02:01;9.15;;;8.25;;
13660;SDS011;6903;49.480;11.102;2023-07-09T03:04:27;9.20;;;8.13;;
13660;SDS011;6903;49.480;11.102;2023-07-09T03:06:52;10.13;;;7.57;;
13660;SDS011;6903;49.480;11.102;2023-07-09T03:09:18;11.53;;;8.27;;
13660;SDS011;6903;49.480;11.102;2023-07-09T03:11:44;8.27;;;7.27;;
13660;SDS011;6903;49.480;11.102;2023-07-09T03:14:09;12.23;;;7.90;;
13660;SDS011;6903;49.480;11.102;2023-07-09T03:16:35;11.40;;;8.00;;
13660;SDS011;6903;49.480;11.102;2023-07-09T03:19:00;10.57;;;8.00;;
13660;SDS011;6903;49.480;11.102;2023-07-09T03:21:28;10.70;;;7.97;;
13660;SDS011;6903;49.480;11.102;2023-07-09T03:23:53;10.03;;;8.07;;
13660;SDS011;6903;49.480;11.102;2023-07-09T03:26:20;10.07;;;7.80;;
13660;SDS011;6903;49.480;11.102;2023-07-09T03:28:45;8.47;;;7.60;;
13660;SDS011;6903;49.480;11.102;2023-07-09T03:31:11;8.87;;;7.97;;
13660;SDS011;6903;49.480;11.102;2023-07-09T03:33:36;8.80;;;7.90;;
13660;SDS011;6903;49.480;11.102;2023-07-09T03:36:02;9.97;;;7.87;;
13660;SDS011;6903;49.480;11.102;2023-07-09T03:38:29;8.83;;;7.93;;
13660;SDS011;6903;49.480;11.102;2023-07-09T03:40:55;9.32;;;7.68;;
13660;SDS011;6903;49.480;11.102;2023-07-09T03:43:21;10.00;;;7.72;;
13660;SDS011;6903;49.480;11.102;2023-07-09T03:45:47;10.93;;;8.13;;
13660;SDS011;6903;49.480;11.102;2023-07-09T03:48:13;8.80;;;7.77;;
13660;SDS011;6903;49.480;11.102;2023-07-09T03:50:39;8.77;;;7.87;;
13660;SDS011;6903;49.480;11.102;2023-07-09T03:53:04;9.23;;;7.70;;
13660;SDS011;6903;49.480;11.102;2023-07-09T03:55:33;9.20;;;7.63;;
13660;SDS011;6903;49.480;11.102;2023-07-09T03:57:58;9.57;;;7.65;;
13660;SDS011;6903;49.480;11.102;2023-07-09T04:00:24;8.70;;;7.68;;
13660;SDS011;6903;49.480;11.102;2023-07-09T04:02:52;8.15;;;7.20;;
13660;SDS011;6903;49.480;11.102;2023-07-09T04:05:18;8.02;;;7.13;;
13660;SDS011;6903;49.480;11.102;2023-07-09T04:07:43;8.85;;;7.03;;
13660;SDS011;6903;49.480;11.102;2023-07-09T04:10:09;7.85;;;7.13;;
13660;SDS011;6903;49.480;11.102;2023-07-09T04:12:34;8.40;;;7.30;;
13660;SDS011;6903;49.480;11.102;2023-07-09T04:15:01;7.88;;;7.07;;
13660;SDS011;6903;49.480;11.102;2023-07-09T04:17:28;7.75;;;6.95;;
13660;SDS011;6903;49.480;11.102;2023-07-09T04:19:53;8.45;;;7.45;;
13660;SDS011;6903;49.480;11.102;2023-07-09T04:22:18;8.85;;;7.25;;
13660;SDS011;6903;49.480;11.102;2023-07-09T04:24:44;8.55;;;6.93;;
13660;SDS011;6903;49.480;11.102;2023-07-09T04:27:09;10.98;;;7.20;;
13660;SDS011;6903;49.480;11.102;2023-07-09T04:29:35;7.97;;;6.78;;
13660;SDS011;6903;49.480;11.102;2023-07-09T04:32:03;7.95;;;7.07;;
13660;SDS011;6903;49.480;11.102;2023-07-09T04:34:36;7.65;;;6.93;;
13660;SDS011;6903;49.480;11.102;2023-07-09T04:37:01;8.73;;;7.15;;
13660;SDS011;6903;49.480;11.102;2023-07-09T04:39:27;7.15;;;6.45;;
13660;SDS011;6903;49.480;11.102;2023-07-09T04:41:52;8.32;;;6.93;;
13660;SDS011;6903;49.480;11.102;2023-07-09T04:44:17;7.25;;;6.55;;
13660;SDS011;6903;49.480;11.102;2023-07-09T04:46:43;9.05;;;6.43;;
13660;SDS011;6903;49.480;11.102;2023-07-09T04:49:08;8.40;;;6.80;;
13660;SDS011;6903;49.480;11.102;2023-07-09T04:51:37;8.25;;;6.90;;
13660;SDS011;6903;49.480;11.102;2023-07-09T04:54:03;7.90;;;6.50;;
13660;SDS011;6903;49.480;11.102;2023-07-09T04:56:28;7.28;;;6.57;;
13660;SDS011;6903;49.480;11.102;2023-07-09T04:58:54;7.22;;;6.53;;
13660;SDS011;6903;49.480;11.102;2023-07-09T05:01:20;8.75;;;7.05;;
13660;SDS011;6903;49.480;11.102;2023-07-09T05:03:45;7.32;;;6.63;;
13660;SDS011;6903;49.480;11.102;2023-07-09T05:06:10;9.50;;;6.97;;
13660;SDS011;6903;49.480;11.102;2023-07-09T05:08:36;7.40;;;6.70;;
13660;SDS011;6903;49.480;11.102;2023-07-09T05:11:01;7.80;;;7.00;;
13660;SDS011;6903;49.480;11.102;2023-07-09T05:13:26;10.00;;;7.18;;
13660;SDS011;6903;49.480;11.102;2023-07-09T05:15:52;7.85;;;6.60;;
13660;SDS011;6903;49.480;11.102;2023-07-09T05:18:17;10.52;;;7.28;;
13660;SDS011;6903;49.480;11.102;2023-07-09T05:20:44;8.00;;;7.13;;
13660;SDS011;6903;49.480;11.102;2023-07-09T05:23:11;8.35;;;6.70;;
13660;SDS011;6903;49.480;11.102;2023-07-09T05:25:37;8.27;;;6.88;;
13660;SDS011;6903;49.480;11.102;2023-07-09T05:28:02;7.63;;;6.85;;
13660;SDS011;6903;49.480;11.102;2023-07-09T05:30:29;9.20;;;6.50;;
13660;SDS011;6903;49.480;11.102;2023-07-09T05:32:54;9.13;;;6.78;;
13660;SDS011;6903;49.480;11.102;2023-07-09T05:35:22;7.80;;;6.97;;
13660;SDS011;6903;49.480;11.102;2023-07-09T05:37:48;7.78;;;6.97;;
13660;SDS011;6903;49.480;11.102;2023-07-09T05:40:13;7.30;;;6.60;;
13660;SDS011;6903;49.480;11.102;2023-07-09T05:42:39;7.25;;;6.55;;
13660;SDS011;6903;49.480;11.102;2023-07-09T05:45:04;6.95;;;6.25;;
13660;SDS011;6903;49.480;11.102;2023-07-09T05:47:30;7.43;;;6.63;;
13660;SDS011;6903;49.480;11.102;2023-07-09T05:49:55;8.80;;;6.88;;
13660;SDS011;6903;49.480;11.102;2023-07-09T05:52:21;7.03;;;6.22;;
13660;SDS011;6903;49.480;11.102;2023-07-09T05:54:51;8.00;;;6.60;;
13660;SDS011;6903;49.480;11.102;2023-07-09T05:57:17;9.07;;;6.60;;
13660;SDS011;6903;49.480;11.102;2023-07-09T05:59:43;7.13;;;6.43;;
13660;SDS011;6903;49.480;11.102;2023-07-09T06:02:11;7.20;;;6.28;;
13660;SDS011;6903;49.480;11.102;2023-07-09T06:04:38;7.72;;;6.95;;
13660;SDS011;6903;49.480;11.102;2023-07-09T06:07:03;7.88;;;6.78;;
13660;SDS011;6903;49.480;11.102;2023-07-09T06:09:29;6.93;;;6.30;;
13660;SDS011;6903;49.480;11.102;2023-07-09T06:11:55;7.47;;;6.80;;
13660;SDS011;6903;49.480;11.102;2023-07-09T06:14:20;8.25;;;6.82;;
13660;SDS011;6903;49.480;11.102;2023-07-09T06:16:46;8.07;;;6.82;;
13660;SDS011;6903;49.480;11.102;2023-07-09T06:19:11;7.65;;;6.82;;
13660;SDS011;6903;49.480;11.102;2023-07-09T06:21:36;6.82;;;6.13;;
13660;SDS011;6903;49.480;11.102;2023-07-09T06:24:02;8.88;;;6.40;;
13660;SDS011;6903;49.480;11.102;2023-07-09T06:26:27;7.40;;;6.68;;
13660;SDS011;6903;49.480;11.102;2023-07-09T06:28:52;7.97;;;6.88;;
13660;SDS011;6903;49.480;11.102;2023-07-09T06:31:18;9.15;;;6.53;;
13660;SDS011;6903;49.480;11.102;2023-07-09T06:33:45;7.25;;;6.07;;
13660;SDS011;6903;49.480;11.102;2023-07-09T06:36:12;7.30;;;6.60;;
13660;SDS011;6903;49.480;11.102;2023-07-09T06:38:37;7.38;;;6.72;;
13660;SDS011;6903;49.480;11.102;2023-07-09T06:41:02;6.95;;;6.20;;
13660;SDS011;6903;49.480;11.102;2023-07-09T06:43:27;8.10;;;7.07;;
13660;SDS011;6903;49.480;11.102;2023-07-09T06:45:57;7.22;;;6.55;;
13660;SDS011;6903;49.480;11.102;2023-07-09T06:48:25;8.30;;;6.70;;
13660;SDS011;6903;49.480;11.102;2023-07-09T06:50:52;6.78;;;6.18;;
13660;SDS011;6903;49.480;11.102;2023-07-09T06:53:18;8.25;;;6.70;;
13660;SDS011;6903;49.480;11.102;2023-07-09T06:55:45;8.35;;;6.90;;
13660;SDS011;6903;49.480;11.102;2023-07-09T06:58:10;7.97;;;6.22;;
13660;SDS011;6903;49.480;11.102;2023-07-09T07:00:36;7.65;;;6.82;;
13660;SDS011;6903;49.480;11.102;2023-07-09T07:03:01;7.88;;;6.90;;
13660;SDS011;6903;49.480;11.102;2023-07-09T07:05:27;9.05;;;6.40;;
13660;SDS011;6903;49.480;11.102;2023-07-09T07:07:52;8.30;;;6.70;;
13660;SDS011;6903;49.480;11.102;2023-07-09T07:10:18;7.82;;;6.55;;
13660;SDS011;6903;49.480;11.102;2023-07-09T07:12:45;7.80;;;7.00;;
13660;SDS011;6903;49.480;11.102;2023-07-09T07:15:13;7.68;;;6.78;;
13660;SDS011;6903;49.480;11.102;2023-07-09T07:17:40;8.38;;;7.07;;
13660;SDS011;6903;49.480;11.102;2023-07-09T07:20:06;7.30;;;6.60;;
13660;SDS011;6903;49.480;11.102;2023-07-09T07:22:32;7.60;;;6.82;;
13660;SDS011;6903;49.480;11.102;2023-07-09T07:24:58;7.88;;;6.55;;
13660;SDS011;6903;49.480;11.102;2023-07-09T07:27:23;8.60;;;6.57;;
13660;SDS011;6903;49.480;11.102;2023-07-09T07:29:48;7.05;;;6.45;;
13660;SDS011;6903;49.480;11.102;2023-07-09T07:32:14;6.93;;;6.28;;
13660;SDS011;6903;49.480;11.102;2023-07-09T07:34:39;6.75;;;6.15;;
13660;SDS011;6903;49.480;11.102;2023-07-09T07:37:04;7.65;;;6.13;;
13660;SDS011;6903;49.480;11.102;2023-07-09T07:39:30;7.82;;;6.13;;
13660;SDS011;6903;49.480;11.102;2023-07-09T07:41:55;6.05;;;5.50;;
13660;SDS011;6903;49.480;11.102;2023-07-09T07:44:21;6.88;;;5.97;;
13660;SDS011;6903;49.480;11.102;2023-07-09T07:46:47;7.47;;;5.70;;
13660;SDS011;6903;49.480;11.102;2023-07-09T07:49:12;6.53;;;5.93;;
13660;SDS011;6903;49.480;11.102;2023-07-09T07:51:37;6.55;;;5.90;;
13660;SDS011;6903;49.480;11.102;2023-07-09T07:54:03;6.60;;;5.65;;
13660;SDS011;6903;49.480;11.102;2023-07-09T07:56:29;6.50;;;5.38;;
13660;SDS011;6903;49.480;11.102;2023-07-09T07:58:54;6.45;;;5.05;;
13660;SDS011;6903;49.480;11.102;2023-07-09T08:01:20;6.97;;;5.35;;
13660;SDS011;6903;49.480;11.102;2023-07-09T08:03:45;5.32;;;4.43;;
13660;SDS011;6903;49.480;11.102;2023-07-09T08:06:11;5.82;;;4.72;;
13660;SDS011;6903;49.480;11.102;2023-07-09T08:08:37;5.22;;;4.72;;
13660;SDS011;6903;49.480;11.102;2023-07-09T08:11:03;6.55;;;4.82;;
13660;SDS011;6903;49.480;11.102;2023-07-09T08:13:33;5.28;;;4.57;;
13660;SDS011;6903;49.480;11.102;2023-07-09T08:15:59;4.82;;;4.00;;
13660;SDS011;6903;49.480;11.102;2023-07-09T08:18:24;4.68;;;4.18;;
13660;SDS011;6903;49.480;11.102;2023-07-09T08:20:50;6.00;;;4.35;;
13660;SDS011;6903;49.480;11.102;2023-07-09T08:23:15;6.28;;;4.35;;
13660;SDS011;6903;49.480;11.102;2023-07-09T08:25:40;5.55;;;4.30;;
13660;SDS011;6903;49.480;11.102;2023-07-09T08:28:06;5.57;;;4.55;;
13660;SDS011;6903;49.480;11.102;2023-07-09T08:30:31;6.45;;;4.63;;
13660;SDS011;6903;49.480;11.102;2023-07-09T08:32:56;6.13;;;4.65;;
13660;SDS011;6903;49.480;11.102;2023-07-09T08:35:22;4.88;;;4.28;;
13660;SDS011;6903;49.480;11.102;2023-07-09T08:37:48;5.22;;;4.00;;
13660;SDS011;6903;49.480;11.102;2023-07-09T08:40:15;4.47;;;3.97;;
13660;SDS011;6903;49.480;11.102;2023-07-09T08:42:46;4.40;;;4.00;;
13660;SDS011;6903;49.480;11.102;2023-07-09T08:45:20;4.40;;;3.80;;
13660;SDS011;6903;49.480;11.102;2023-07-09T08:48:04;5.40;;;3.47;;
13660;SDS011;6903;49.480;11.102;2023-07-09T08:50:38;5.68;;;4.00;;
13660;SDS011;6903;49.480;11.102;2023-07-09T08:53:18;4.70;;;3.72;;
13660;SDS011;6903;49.480;11.102;2023-07-09T08:55:49;5.07;;;3.92;;
13660;SDS011;6903;49.480;11.102;2023-07-09T08:58:21;4.18;;;3.78;;
13660;SDS011;6903;49.480;11.102;2023-07-09T09:03:34;6.45;;;4.25;;
13660;SDS011;6903;49.480;11.102;2023-07-09T09:06:08;4.65;;;3.75;;
13660;SDS011;6903;49.480;11.102;2023-07-09T09:08:40;4.40;;;3.67;;
13660;SDS011;6903;49.480;11.102;2023-07-09T09:11:14;5.03;;;4.03;;
13660;SDS011;6903;49.480;11.102;2023-07-09T09:13:42;6.18;;;4.13;;
13660;SDS011;6903;49.480;11.102;2023-07-09T09:16:14;4.18;;;3.78;;
13660;SDS011;6903;49.480;11.102;2023-07-09T09:18:47;4.60;;;3.63;;
13660;SDS011;6903;49.480;11.102;2023-07-09T09:21:21;4.22;;;3.83;;
13660;SDS011;6903;49.480;11.102;2023-07-09T09:23:50;7.40;;;4.53;;
13660;SDS011;6903;49.480;11.102;2023-07-09T09:26:33;5.28;;;4.00;;
13660;SDS011;6903;49.480;11.102;2023-07-09T09:29:00;6.60;;;4.28;;
13660;SDS011;6903;49.480;11.102;2023-07-09T09:31:26;4.35;;;3.58;;
13660;SDS011;6903;49.480;11.102;2023-07-09T09:33:53;5.65;;;4.20;;
13660;SDS011;6903;49.480;11.102;2023-07-09T09:36:20;5.05;;;4.20;;
13660;SDS011;6903;49.480;11.102;2023-07-09T09:38:46;4.45;;;3.92;;
13660;SDS011;6903;49.480;11.102;2023-07-09T09:41:12;5.75;;;4.22;;
13660;SDS011;6903;49.480;11.102;2023-07-09T09:43:41;5.88;;;4.20;;
13660;SDS011;6903;49.480;11.102;2023-07-09T09:46:09;7.60;;;3.97;;
13660;SDS011;6903;49.480;11.102;2023-07-09T09:48:40;5.72;;;3.78;;
13660;SDS011;6903;49.480;11.102;2023-07-09T09:51:10;4.18;;;3.78;;
13660;SDS011;6903;49.480;11.102;2023-07-09T09:53:37;7.45;;;4.32;;
13660;SDS011;6903;49.480;11.102;2023-07-09T09:56:05;5.53;;;4.30;;
13660;SDS011;6903;49.480;11.102;2023-07-09T09:58:35;4.70;;;4.20;;
13660;SDS011;6903;49.480;11.102;2023-07-09T10:01:05;5.28;;;4.38;;
13660;SDS011;6903;49.480;11.102;2023-07-09T10:03:32;5.57;;;4.10;;
13660;SDS011;6903;49.480;11.102;2023-07-09T10:05:59;6.78;;;4.18;;
13660;SDS011;6903;49.480;11.102;2023-07-09T10:08:40;6.78;;;4.35;;
13660;SDS011;6903;49.480;11.102;2023-07-09T10:11:24;5.07;;;4.40;;
13660;SDS011;6903;49.480;11.102;2023-07-09T10:13:51;4.95;;;3.95;;
13660;SDS011;6903;49.480;11.102;2023-07-09T10:16:25;4.43;;;3.80;;
13660;SDS011;6903;49.480;11.102;2023-07-09T10:19:15;5.15;;;4.15;;
13660;SDS011;6903;49.480;11.102;2023-07-09T10:21:57;5.38;;;3.83;;
13660;SDS011;6903;49.480;11.102;2023-07-09T10:33:21;5.72;;;4.35;;
13660;SDS011;6903;49.480;11.102;2023-07-09T10:38:51;4.65;;;4.10;;
13660;SDS011;6903;49.480;11.102;2023-07-09T10:41:23;5.50;;;4.20;;
13660;SDS011;6903;49.480;11.102;2023-07-09T10:44:01;5.72;;;3.88;;
13660;SDS011;6903;49.480;11.102;2023-07-09T10:46:36;4.35;;;3.92;;
13660;SDS011;6903;49.480;11.102;2023-07-09T10:49:03;6.78;;;4.00;;
13660;SDS011;6903;49.480;11.102;2023-07-09T10:51:37;5.45;;;3.92;;
13660;SDS011;6903;49.480;11.102;2023-07-09T10:54:11;6.40;;;4.20;;
13660;SDS011;6903;49.480;11.102;2023-07-09T10:56:39;6.03;;;4.22;;
13660;SDS011;6903;49.480;11.102;2023-07-09T11:01:45;5.70;;;4.13;;
13660;SDS011;6903;49.480;11.102;2023-07-09T11:06:50;8.52;;;4.68;;
13660;SDS011;6903;49.480;11.102;2023-07-09T11:11:49;5.43;;;4.18;;
13660;SDS011;6903;49.480;11.102;2023-07-09T11:14:27;6.03;;;4.20;;
13660;SDS011;6903;49.480;11.102;2023-07-09T11:17:12;6.15;;;4.38;;
13660;SDS011;6903;49.480;11.102;2023-07-09T11:19:48;5.10;;;4.00;;
13660;SDS011;6903;49.480;11.102;2023-07-09T11:22:24;6.07;;;4.10;;
13660;SDS011;6903;49.480;11.102;2023-07-09T11:24:53;4.72;;;4.30;;
13660;SDS011;6903;49.480;11.102;2023-07-09T11:27:30;4.95;;;4.22;;
13660;SDS011;6903;49.480;11.102;2023-07-09T11:30:01;5.45;;;3.80;;
13660;SDS011;6903;49.480;11.102;2023-07-09T11:32:28;4.85;;;4.18;;
13660;SDS011;6903;49.480;11.102;2023-07-09T11:34:54;5.75;;;3.95;;
13660;SDS011;6903;49.480;11.102;2023-07-09T11:37:22;5.38;;;4.03;;
13660;SDS011;6903;49.480;11.102;2023-07-09T11:39:50;5.35;;;4.10;;
13660;SDS011;6903;49.480;11.102;2023-07-09T11:42:26;6.38;;;4.85;;
13660;SDS011;6903;49.480;11.102;2023-07-09T11:45:12;7.65;;;4.70;;
13660;SDS011;6903;49.480;11.102;2023-07-09T11:47:43;7.18;;;4.30;;
13660;SDS011;6903;49.480;11.102;2023-07-09T11:50:26;7.70;;;4.95;;
13660;SDS011;6903;49.480;11.102;2023-07-09T11:52:54;7.40;;;4.40;;
13660;SDS011;6903;49.480;11.102;2023-07-09T11:55:31;5.60;;;3.88;;
13660;SDS011;6903;49.480;11.102;2023-07-09T11:58:04;8.27;;;4.13;;
13660;SDS011;6903;49.480;11.102;2023-07-09T12:00:46;5.22;;;4.30;;
13660;SDS011;6903;49.480;11.102;2023-07-09T12:03:15;4.45;;;3.67;;
13660;SDS011;6903;49.480;11.102;2023-07-09T12:05:46;5.40;;;4.00;;
13660;SDS011;6903;49.480;11.102;2023-07-09T12:08:15;12.05;;;4.50;;
13660;SDS011;6903;49.480;11.102;2023-07-09T12:10:41;6.28;;;4.20;;
13660;SDS011;6903;49.480;11.102;2023-07-09T12:13:08;5.03;;;4.30;;
13660;SDS011;6903;49.480;11.102;2023-07-09T12:15:36;6.22;;;4.45;;
13660;SDS011;6903;49.480;11.102;2023-07-09T12:18:11;4.35;;;3.95;;
13660;SDS011;6903;49.480;11.102;2023-07-09T12:20:37;6.57;;;4.53;;
13660;SDS011;6903;49.480;11.102;2023-07-09T12:23:10;6.25;;;4.85;;
13660;SDS011;6903;49.480;11.102;2023-07-09T12:25:46;5.57;;;4.47;;
13660;SDS011;6903;49.480;11.102;2023-07-09T12:28:13;5.25;;;4.20;;
13660;SDS011;6903;49.480;11.102;2023-07-09T12:30:40;6.30;;;4.90;;
13660;SDS011;6903;49.480;11.102;2023-07-09T12:33:12;6.10;;;4.30;;
13660;SDS011;6903;49.480;11.102;2023-07-09T12:35:41;6.20;;;4.28;;
13660;SDS011;6903;49.480;11.102;2023-07-09T12:38:12;6.32;;;4.50;;
13660;SDS011;6903;49.480;11.102;2023-07-09T12:40:42;6.25;;;3.88;;
13660;SDS011;6903;49.480;11.102;2023-07-09T12:43:08;6.78;;;4.57;;
13660;SDS011;6903;49.480;11.102;2023-07-09T12:45:36;6.25;;;4.40;;
13660;SDS011;6903;49.480;11.102;2023-07-09T12:48:01;4.38;;;3.72;;
13660;SDS011;6903;49.480;11.102;2023-07-09T12:50:29;4.95;;;4.30;;
13660;SDS011;6903;49.480;11.102;2023-07-09T12:52:56;6.40;;;4.25;;
13660;SDS011;6903;49.480;11.102;2023-07-09T12:55:26;4.70;;;3.78;;
13660;SDS011;6903;49.480;11.102;2023-07-09T12:57:56;5.43;;;4.03;;
13660;SDS011;6903;49.480;11.102;2023-07-09T13:00:22;5.30;;;4.65;;
13660;SDS011;6903;49.480;11.102;2023-07-09T13:02:54;4.63;;;3.80;;
13660;SDS011;6903;49.480;11.102;2023-07-09T13:05:21;5.22;;;4.15;;
13660;SDS011;6903;49.480;11.102;2023-07-09T13:07:49;6.60;;;4.28;;
13660;SDS011;6903;49.480;11.102;2023-07-09T13:10:18;5.20;;;4.03;;
13660;SDS011;6903;49.480;11.102;2023-07-09T13:12:50;6.45;;;4.00;;
13660;SDS011;6903;49.480;11.102;2023-07-09T13:15:30;5.47;;;4.03;;
13660;SDS011;6903;49.480;11.102;2023-07-09T13:18:03;6.43;;;4.43;;
13660;SDS011;6903;49.480;11.102;2023-07-09T13:20:31;4.75;;;4.20;;
13660;SDS011;6903;49.480;11.102;2023-07-09T13:22:58;6.63;;;4.40;;
13660;SDS011;6903;49.480;11.102;2023-07-09T13:25:24;7.45;;;4.70;;
13660;SDS011;6903;49.480;11.102;2023-07-09T13:27:49;6.07;;;4.60;;
13660;SDS011;6903;49.480;11.102;2023-07-09T13:30:15;4.63;;;4.07;;
13660;SDS011;6903;49.480;11.102;2023-07-09T13:32:40;8.95;;;4.82;;
13660;SDS011;6903;49.480;11.102;2023-07-09T13:35:16;7.68;;;4.32;;
13660;SDS011;6903;49.480;11.102;2023-07-09T13:37:43;5.35;;;4.32;;
13660;SDS011;6903;49.480;11.102;2023-07-09T13:40:11;5.35;;;4.30;;
13660;SDS011;6903;49.480;11.102;2023-07-09T13:42:38;5.47;;;4.38;;
13660;SDS011;6903;49.480;11.102;2023-07-09T13:45:08;8.88;;;4.15;;
13660;SDS011;6903;49.480;11.102;2023-07-09T13:47:40;6.13;;;4.40;;
13660;SDS011;6903;49.480;11.102;2023-07-09T13:50:06;5.75;;;4.07;;
13660;SDS011;6903;49.480;11.102;2023-07-09T13:52:31;7.95;;;4.13;;
13660;SDS011;6903;49.480;11.102;2023-07-09T13:54:59;5.35;;;4.25;;
13660;SDS011;6903;49.480;11.102;2023-07-09T13:57:24;5.65;;;4.10;;
13660;SDS011;6903;49.480;11.102;2023-07-09T13:59:49;6.75;;;4.18;;
13660;SDS011;6903;49.480;11.102;2023-07-09T14:04:56;7.47;;;4.43;;
13660;SDS011;6903;49.480;11.102;2023-07-09T14:07:30;4.82;;;4.13;;
13660;SDS011;6903;49.480;11.102;2023-07-09T14:09:58;5.38;;;4.07;;
13660;SDS011;6903;49.480;11.102;2023-07-09T14:12:24;4.70;;;4.25;;
13660;SDS011;6903;49.480;11.102;2023-07-09T14:14:50;5.97;;;4.32;;
13660;SDS011;6903;49.480;11.102;2023-07-09T14:17:17;6.53;;;3.92;;
13660;SDS011;6903;49.480;11.102;2023-07-09T14:19:42;7.60;;;4.20;;
13660;SDS011;6903;49.480;11.102;2023-07-09T14:22:21;6.18;;;4.00;;
13660;SDS011;6903;49.480;11.102;2023-07-09T14:24:52;5.57;;;3.92;;
13660;SDS011;6903;49.480;11.102;2023-07-09T14:27:18;5.53;;;4.35;;
13660;SDS011;6903;49.480;11.102;2023-07-09T14:29:44;5.00;;;4.00;;
13660;SDS011;6903;49.480;11.102;2023-07-09T14:32:21;6.43;;;4.25;;
13660;SDS011;6903;49.480;11.102;2023-07-09T14:34:56;5.63;;;4.47;;
13660;SDS011;6903;49.480;11.102;2023-07-09T14:37:21;4.97;;;3.90;;
13660;SDS011;6903;49.480;11.102;2023-07-09T14:39:46;6.13;;;3.65;;
13660;SDS011;6903;49.480;11.102;2023-07-09T14:42:12;5.25;;;3.80;;
13660;SDS011;6903;49.480;11.102;2023-07-09T14:44:39;4.93;;;4.30;;
13660;SDS011;6903;49.480;11.102;2023-07-09T14:47:09;5.07;;;4.10;;
13660;SDS011;6903;49.480;11.102;2023-07-09T14:49:39;4.25;;;3.85;;
13660;SDS011;6903;49.480;11.102;2023-07-09T14:52:05;4.90;;;4.40;;
13660;SDS011;6903;49.480;11.102;2023-07-09T14:54:35;8.55;;;4.65;;
13660;SDS011;6903;49.480;11.102;2023-07-09T14:57:00;6.00;;;3.90;;
13660;SDS011;6903;49.480;11.102;2023-07-09T14:59:33;5.53;;;4.22;;
13660;SDS011;6903;49.480;11.102;2023-07-09T15:01:59;5.78;;;4.05;;
13660;SDS011;6903;49.480;11.102;2023-07-09T15:06:50;4.68;;;3.92;;
13660;SDS011;6903;49.480;11.102;2023-07-09T15:09:16;6.45;;;4.60;;
13660;SDS011;6903;49.480;11.102;2023-07-09T15:11:45;7.18;;;4.13;;
13660;SDS011;6903;49.480;11.102;2023-07-09T15:14:14;6.80;;;4.28;;
13660;SDS011;6903;49.480;11.102;2023-07-09T15:16:40;6.20;;;4.63;;
13660;SDS011;6903;49.480;11.102;2023-07-09T15:19:23;5.15;;;4.10;;
13660;SDS011;6903;49.480;11.102;2023-07-09T15:21:49;6.95;;;4.38;;
13660;SDS011;6903;49.480;11.102;2023-07-09T15:24:33;5.18;;;4.32;;